Time;durP1;ratioP1;P1;durP2;ratioP2;P2;SDS_P1;SDS_P2;PMS_P1;PMS_P2;Temp;Humidity;BMP_temperature;BMP_pressure;BME280_temperature;BME280_humidity;BME280_pressure;Samples;Min_cycle;Max_cycle;Signal;HPM_P1;HPM_P2
2022/02/20 00:02:09;;;;;;;7.10;0.50;;;5.50;99.90;;;;;;5027008;28;20025;-37
2022/02/20 00:04:36;;;;;;;6.35;0.73;;;5.40;99.90;;;;;;5029452;28;20029;-36
2022/02/20 00:07:02;;;;;;;6.32;0.63;;;5.50;99.90;;;;;;5023421;28;20123;-38
2022/02/20 00:09:28;;;;;;;3.75;0.50;;;5.50;99.90;;;;;;5024365;28;20088;-38
2022/02/20 00:11:54;;;;;;;6.78;1.25;;;5.40;99.90;;;;;;5023335;28;20426;-39
2022/02/20 00:14:19;;;;;;;8.82;0.60;;;5.40;99.90;;;;;;5023562;28;20029;-37
2022/02/20 00:16:45;;;;;;;7.70;0.60;;;5.50;99.90;;;;;;5025435;28;20034;-36
2022/02/20 00:19:11;;;;;;;4.97;0.70;;;5.50;99.90;;;;;;5024153;28;20021;-38
2022/02/20 00:21:36;;;;;;;7.55;1.02;;;5.50;99.90;;;;;;5019232;28;20045;-38
2022/02/20 00:24:02;;;;;;;2.67;0.50;;;5.40;99.90;;;;;;5026811;28;20076;-52
2022/02/20 00:26:28;;;;;;;5.82;0.52;;;5.40;99.90;;;;;;5024686;28;20040;-37
2022/02/20 00:28:53;;;;;;;0.68;0.32;;;5.40;99.90;;;;;;5021643;28;20064;-40
2022/02/20 00:31:19;;;;;;;1.90;0.47;;;5.40;99.90;;;;;;5024693;28;20565;-39
2022/02/20 00:33:44;;;;;;;3.95;0.13;;;5.40;99.90;;;;;;5023057;28;20067;-38
2022/02/20 00:36:10;;;;;;;3.63;0.52;;;5.30;99.90;;;;;;5023177;28;20072;-38
2022/02/20 00:38:36;;;;;;;1.95;0.32;;;5.30;99.90;;;;;;5021153;28;20493;-38
2022/02/20 00:41:01;;;;;;;1.45;0.30;;;5.30;99.90;;;;;;5020435;28;20026;-38
2022/02/20 00:43:27;;;;;;;6.22;0.45;;;5.30;99.90;;;;;;5021674;28;20045;-36
2022/02/20 00:45:52;;;;;;;1.75;0.60;;;5.30;99.90;;;;;;5023318;28;20113;-33
2022/02/20 00:48:20;;;;;;;8.20;1.42;;;5.40;99.90;;;;;;5023629;28;21038;-38
2022/02/20 00:50:47;;;;;;;;;;;5.40;99.90;;;;;;5024758;28;20068;-36
2022/02/20 00:53:13;;;;;;;6.95;0.68;;;5.50;99.90;;;;;;5021711;28;20051;-39
2022/02/20 00:55:38;;;;;;;4.07;0.50;;;5.50;99.90;;;;;;5023647;28;20037;-37
2022/02/20 00:58:04;;;;;;;4.47;0.50;;;5.50;99.90;;;;;;5024321;28;20478;-34
2022/02/20 01:00:29;;;;;;;3.50;0.80;;;5.50;99.90;;;;;;5023902;28;20025;-37
2022/02/20 01:02:55;;;;;;;2.95;0.60;;;5.50;99.90;;;;;;5022851;28;20648;-47
2022/02/20 01:05:21;;;;;;;3.85;0.40;;;5.50;99.90;;;;;;5021674;28;20025;-39
2022/02/20 01:07:47;;;;;;;4.28;0.90;;;5.50;99.90;;;;;;5015896;28;20030;-60
2022/02/20 01:10:16;;;;;;;2.47;0.65;;;5.50;99.90;;;;;;5026050;28;20401;-38
2022/02/20 01:12:43;;;;;;;2.97;0.22;;;5.50;99.90;;;;;;5024200;28;20056;-38
2022/02/20 01:15:10;;;;;;;0.40;0.40;;;5.50;99.90;;;;;;5021339;28;20033;-37
2022/02/20 01:17:36;;;;;;;1.75;0.38;;;5.50;99.90;;;;;;5030220;28;20041;-37
2022/02/20 01:20:02;;;;;;;4.82;0.50;;;5.50;99.90;;;;;;5026341;28;20021;-37
2022/02/20 01:22:28;;;;;;;7.18;0.88;;;5.50;99.90;;;;;;5021219;28;20036;-38
2022/02/20 01:24:55;;;;;;;4.60;0.30;;;5.60;99.90;;;;;;5028256;28;20029;-37
2022/02/20 01:27:21;;;;;;;6.80;0.63;;;5.70;99.90;;;;;;5020995;28;20121;-37
2022/02/20 01:29:47;;;;;;;1.90;0.50;;;5.70;99.90;;;;;;5021347;28;20029;-38
2022/02/20 01:32:13;;;;;;;3.75;0.63;;;5.70;99.90;;;;;;5014485;28;20034;-38
2022/02/20 01:34:39;;;;;;;0.63;0.25;;;5.70;99.90;;;;;;5020432;28;20403;-37
2022/02/20 01:37:04;;;;;;;5.20;0.70;;;5.70;99.90;;;;;;5031902;28;20056;-37
2022/02/20 01:39:30;;;;;;;1.92;0.60;;;5.60;99.90;;;;;;5030454;28;20036;-37
2022/02/20 01:41:56;;;;;;;6.25;0.50;;;5.60;99.90;;;;;;5026653;28;20026;-38
2022/02/20 01:44:21;;;;;;;2.33;0.57;;;5.70;99.90;;;;;;5031160;28;20055;-37
2022/02/20 01:46:49;;;;;;;4.60;0.47;;;5.70;99.90;;;;;;5015914;28;20029;-37
2022/02/20 01:49:17;;;;;;;1.95;0.45;;;5.70;99.90;;;;;;5013429;28;20081;-38
2022/02/20 01:51:43;;;;;;;0.87;0.20;;;5.70;99.90;;;;;;5032075;28;20033;-37
2022/02/20 01:54:08;;;;;;;0.98;0.43;;;5.70;99.90;;;;;;5032077;28;20467;-37
2022/02/20 01:56:35;;;;;;;1.42;0.20;;;5.80;99.90;;;;;;5032062;28;20509;-40
2022/02/20 01:59:03;;;;;;;4.82;0.50;;;5.80;99.90;;;;;;5034713;28;20375;-39
2022/02/20 02:01:28;;;;;;;0.70;0.13;;;5.80;99.90;;;;;;5035315;28;20108;-38
2022/02/20 02:03:54;;;;;;;0.38;0.20;;;5.80;99.90;;;;;;5034807;28;20473;-37
2022/02/20 02:06:20;;;;;;;2.08;0.45;;;5.80;99.90;;;;;;5035065;28;20030;-39
2022/02/20 02:08:45;;;;;;;3.30;0.50;;;5.80;99.90;;;;;;5034855;28;20030;-38
2022/02/20 02:11:12;;;;;;;3.47;0.47;;;5.80;99.90;;;;;;5035692;28;20523;-39
2022/02/20 02:13:38;;;;;;;2.42;0.40;;;5.80;99.90;;;;;;5035358;28;20164;-45
2022/02/20 02:16:04;;;;;;;1.05;0.30;;;5.90;99.90;;;;;;5035139;28;20116;-38
2022/02/20 02:18:30;;;;;;;2.63;0.40;;;5.90;99.90;;;;;;5035250;28;20036;-39
2022/02/20 02:20:55;;;;;;;5.68;0.32;;;6.00;99.90;;;;;;5034466;28;20032;-37
2022/02/20 02:23:21;;;;;;;1.05;0.10;;;6.00;99.90;;;;;;5026679;28;20030;-37
2022/02/20 02:25:49;;;;;;;1.40;0.38;;;6.00;99.90;;;;;;5028399;28;20030;-37
2022/02/20 02:28:15;;;;;;;3.60;0.20;;;6.00;99.90;;;;;;5030217;28;20053;-38
2022/02/20 02:30:41;;;;;;;1.17;0.20;;;6.00;99.90;;;;;;5016116;28;20101;-40
2022/02/20 02:33:07;;;;;;;2.72;0.70;;;6.10;99.90;;;;;;5030887;28;20057;-43
2022/02/20 02:35:33;;;;;;;1.73;0.35;;;6.00;99.90;;;;;;5027192;28;20036;-39
2022/02/20 02:37:59;;;;;;;5.15;0.50;;;6.00;99.90;;;;;;5018070;28;20049;-38
2022/02/20 02:40:24;;;;;;;9.00;0.73;;;6.10;99.90;;;;;;5026419;28;20406;-58
2022/02/20 02:42:50;;;;;;;9.15;0.50;;;6.10;99.90;;;;;;5030928;28;20030;-40
2022/02/20 02:45:16;;;;;;;2.70;0.63;;;6.20;99.90;;;;;;5029479;28;20021;-38
2022/02/20 02:47:47;;;;;;;6.13;0.88;;;6.20;99.90;;;;;;5028718;28;20029;-39
2022/02/20 02:50:13;;;;;;;6.82;0.73;;;6.30;99.90;;;;;;5023755;28;20067;-39
2022/02/20 02:52:39;;;;;;;2.33;0.30;;;6.20;99.90;;;;;;5034571;28;20359;-40
2022/02/20 02:55:05;;;;;;;0.57;0.20;;;6.20;99.90;;;;;;5027309;28;20037;-66
2022/02/20 02:57:31;;;;;;;1.88;0.70;;;6.20;99.90;;;;;;5018091;28;20080;-40
2022/02/20 02:59:58;;;;;;;6.75;0.40;;;6.30;99.90;;;;;;5029592;28;20496;-38
2022/02/20 03:02:23;;;;;;;10.88;1.27;;;6.30;99.90;;;;;;5032964;28;20018;-39
2022/02/20 03:04:49;;;;;;;3.63;0.50;;;6.30;99.90;;;;;;5025298;28;20444;-40
2022/02/20 03:07:15;;;;;;;0.30;0.20;;;6.20;99.90;;;;;;5033961;28;20049;-37
2022/02/20 03:09:40;;;;;;;0.85;0.30;;;6.20;99.90;;;;;;5027126;28;20030;-38
2022/02/20 03:12:08;;;;;;;1.95;0.60;;;6.20;99.90;;;;;;5033648;28;20029;-38
2022/02/20 03:14:34;;;;;;;7.50;0.60;;;6.20;99.90;;;;;;5032109;28;20029;-36
2022/02/20 03:17:00;;;;;;;6.25;0.60;;;6.20;99.90;;;;;;5029679;28;20025;-39
2022/02/20 03:19:25;;;;;;;3.05;0.32;;;6.20;99.90;;;;;;5027804;28;20025;-39
2022/02/20 03:21:51;;;;;;;4.50;0.85;;;6.10;99.90;;;;;;5032740;28;20479;-39
2022/02/20 03:24:17;;;;;;;5.50;0.52;;;6.10;99.90;;;;;;5015716;28;20033;-49
2022/02/20 03:26:42;;;;;;;6.72;0.80;;;6.00;99.90;;;;;;5014189;28;20030;-53
2022/02/20 03:29:08;;;;;;;4.15;0.60;;;6.10;99.90;;;;;;5012912;28;20077;-38
2022/02/20 03:31:33;;;;;;;6.75;0.80;;;6.10;99.90;;;;;;5027567;28;20033;-41
2022/02/20 03:33:59;;;;;;;4.18;0.60;;;6.10;99.90;;;;;;5018126;28;20025;-38
2022/02/20 03:36:24;;;;;;;5.30;0.70;;;6.10;99.90;;;;;;5026708;28;20108;-37
2022/02/20 03:38:51;;;;;;;5.57;0.50;;;6.00;99.90;;;;;;5022182;28;20030;-40
2022/02/20 03:41:17;;;;;;;8.65;1.00;;;6.00;99.90;;;;;;5023323;28;20037;-37
2022/02/20 03:43:43;;;;;;;2.40;0.75;;;5.90;99.90;;;;;;5023810;28;20109;-40
2022/02/20 03:46:09;;;;;;;6.25;1.00;;;5.90;99.90;;;;;;5013993;28;20037;-39
2022/02/20 03:48:35;;;;;;;6.00;0.82;;;5.90;99.90;;;;;;5012548;28;20395;-57
2022/02/20 03:51:00;;;;;;;4.60;0.47;;;5.90;99.90;;;;;;5028835;28;20083;-38
2022/02/20 03:53:26;;;;;;;10.38;0.93;;;5.90;99.90;;;;;;5029796;28;20029;-39
2022/02/20 03:55:52;;;;;;;3.92;0.63;;;5.80;99.90;;;;;;5017506;28;20057;-39
2022/02/20 03:58:17;;;;;;;7.05;2.42;;;5.80;99.90;;;;;;5012446;28;20092;-39
2022/02/20 04:00:43;;;;;;;5.25;0.85;;;5.80;99.90;;;;;;5014921;28;20055;-40
2022/02/20 04:03:09;;;;;;;9.38;0.90;;;5.70;99.90;;;;;;5014868;28;20053;-39
2022/02/20 04:05:34;;;;;;;2.67;0.90;;;5.70;99.90;;;;;;5013929;28;20022;-41
2022/02/20 04:08:00;;;;;;;3.70;0.77;;;5.70;99.90;;;;;;5016417;28;20056;-39
2022/02/20 04:10:26;;;;;;;9.43;0.82;;;5.70;99.90;;;;;;5032019;28;20518;-39
2022/02/20 04:12:51;;;;;;;9.25;1.23;;;5.70;99.90;;;;;;5024812;28;20076;-38
2022/02/20 04:15:17;;;;;;;4.70;1.10;;;5.60;99.90;;;;;;5029134;28;20037;-38
2022/02/20 04:17:44;;;;;;;3.72;1.02;;;5.60;99.90;;;;;;5033097;28;20053;-39
2022/02/20 04:20:12;;;;;;;11.25;1.63;;;5.60;99.90;;;;;;5028733;28;20026;-39
2022/02/20 04:22:38;;;;;;;5.40;1.05;;;5.60;99.90;;;;;;5013701;28;20022;-40
2022/02/20 04:25:05;;;;;;;4.88;1.35;;;5.60;99.90;;;;;;5028919;28;20026;-37
2022/02/20 04:27:30;;;;;;;8.82;1.20;;;5.60;99.90;;;;;;5032253;28;20056;-39
2022/02/20 04:29:56;;;;;;;3.97;1.20;;;5.60;99.90;;;;;;5025806;28;20375;-38
2022/02/20 04:32:21;;;;;;;2.38;1.55;;;5.60;99.90;;;;;;5021470;28;20038;-37
2022/02/20 04:34:47;;;;;;;8.00;2.00;;;5.60;99.90;;;;;;5030665;28;20026;-38
2022/02/20 04:37:13;;;;;;;4.70;2.03;;;5.60;99.90;;;;;;5030493;28;20105;-38
2022/02/20 04:39:38;;;;;;;4.00;2.28;;;5.60;99.90;;;;;;5024229;28;20021;-38
2022/02/20 04:42:04;;;;;;;13.20;3.28;;;5.50;99.90;;;;;;5028646;28;20022;-39
2022/02/20 04:44:30;;;;;;;19.42;3.85;;;5.40;99.90;;;;;;5025107;28;20054;-46
2022/02/20 04:46:55;;;;;;;6.10;3.03;;;5.40;99.90;;;;;;5012991;28;20022;-39
2022/02/20 04:49:21;;;;;;;6.50;2.83;;;5.40;99.90;;;;;;5012998;28;20103;-39
2022/02/20 04:51:47;;;;;;;6.03;3.22;;;5.30;99.90;;;;;;5015346;28;20088;-39
2022/02/20 04:54:14;;;;;;;7.82;3.08;;;5.30;99.90;;;;;;5031216;28;20026;-37
2022/02/20 04:56:42;;;;;;;9.93;3.38;;;5.30;99.90;;;;;;5024806;28;20037;-38
2022/02/20 04:59:12;;;;;;;9.70;3.72;;;5.20;99.90;;;;;;5032537;28;20029;-39
2022/02/20 05:01:38;;;;;;;5.90;3.30;;;5.20;99.90;;;;;;5031939;28;20505;-38
2022/02/20 05:04:05;;;;;;;7.57;3.20;;;5.20;99.90;;;;;;5030375;28;20389;-37
2022/02/20 05:06:31;;;;;;;4.72;3.60;;;5.30;99.90;;;;;;5027179;28;20021;-38
2022/02/20 05:08:57;;;;;;;8.43;3.30;;;5.20;99.90;;;;;;5018449;28;20053;-38
2022/02/20 05:11:27;;;;;;;12.43;3.63;;;5.20;99.90;;;;;;5027305;28;20516;-37
2022/02/20 05:13:55;;;;;;;8.27;3.63;;;5.20;99.90;;;;;;5013008;28;20025;-37
2022/02/20 05:16:22;;;;;;;14.00;4.93;;;5.20;99.90;;;;;;5014771;28;20176;-38
2022/02/20 05:18:47;;;;;;;9.73;4.63;;;5.20;99.90;;;;;;5012644;28;20022;-37
2022/02/20 05:21:13;;;;;;;18.73;5.40;;;5.30;99.90;;;;;;5012720;28;20022;-38
2022/02/20 05:23:39;;;;;;;9.75;3.92;;;5.20;99.90;;;;;;5019191;28;20462;-37
2022/02/20 05:26:05;;;;;;;9.25;4.07;;;5.20;99.90;;;;;;5030527;28;20500;-35
2022/02/20 05:28:30;;;;;;;8.20;4.57;;;5.20;99.90;;;;;;5031169;28;20041;-37
2022/02/20 05:30:56;;;;;;;8.57;4.40;;;5.30;99.90;;;;;;5029246;28;20049;-39
2022/02/20 05:33:21;;;;;;;10.65;4.78;;;5.20;99.90;;;;;;5020229;28;20037;-37
2022/02/20 05:35:47;;;;;;;11.68;5.93;;;5.30;99.90;;;;;;5027920;28;20386;-35
2022/02/20 05:38:13;;;;;;;11.20;5.25;;;5.30;99.90;;;;;;5020587;28;20028;-37
2022/02/20 05:40:38;;;;;;;11.20;4.55;;;5.40;99.90;;;;;;5026319;28;20060;-39
2022/02/20 05:43:05;;;;;;;14.10;5.28;;;5.40;99.90;;;;;;5035640;28;20545;-41
2022/02/20 05:45:31;;;;;;;15.80;5.28;;;5.40;99.90;;;;;;5029550;28;20101;-41
2022/02/20 05:47:57;;;;;;;15.70;6.05;;;5.50;99.90;;;;;;5016402;28;20502;-38
2022/02/20 05:50:23;;;;;;;14.25;5.75;;;5.50;99.90;;;;;;5016055;28;20108;-37
2022/02/20 05:52:48;;;;;;;15.82;5.00;;;5.50;99.90;;;;;;5022310;28;20030;-38
2022/02/20 05:55:14;;;;;;;11.07;5.18;;;5.60;99.90;;;;;;5017953;28;20025;-37
2022/02/20 05:57:44;;;;;;;19.80;6.30;;;5.60;99.90;;;;;;5031961;28;20386;-37
2022/02/20 06:00:12;;;;;;;20.15;5.80;;;5.60;99.90;;;;;;5035628;28;20355;-37
2022/02/20 06:02:37;;;;;;;25.58;6.35;;;5.60;99.90;;;;;;5035642;28;20394;-36
2022/02/20 06:05:03;;;;;;;15.25;5.93;;;5.60;99.90;;;;;;5033157;28;20029;-36
2022/02/20 06:07:29;;;;;;;19.40;5.70;;;5.60;99.90;;;;;;5018524;28;20029;-37
2022/02/20 06:09:54;;;;;;;14.82;5.82;;;5.70;99.90;;;;;;5018786;28;20480;-37
2022/02/20 06:12:20;;;;;;;15.02;6.40;;;5.70;99.90;;;;;;5032516;28;20067;-37
2022/02/20 06:14:46;;;;;;;23.08;5.82;;;5.70;99.90;;;;;;5034803;28;20030;-36
2022/02/20 06:17:11;;;;;;;15.45;5.55;;;5.70;99.90;;;;;;5025479;28;20068;-38
2022/02/20 06:19:37;;;;;;;19.42;5.88;;;5.80;99.90;;;;;;5034601;28;20025;-37
2022/02/20 06:22:03;;;;;;;19.70;6.22;;;5.80;99.90;;;;;;5015374;28;20088;-38
2022/02/20 06:24:28;;;;;;;17.08;6.10;;;5.80;99.90;;;;;;5030428;28;20524;-36
2022/02/20 06:26:54;;;;;;;14.85;6.30;;;5.90;99.90;;;;;;5031831;28;20470;-54
2022/02/20 06:29:20;;;;;;;15.50;5.68;;;5.90;99.90;;;;;;5019313;28;20112;-37
2022/02/20 06:31:45;;;;;;;25.30;6.47;;;6.00;99.90;;;;;;5030333;28;20026;-39
2022/02/20 06:34:11;;;;;;;14.48;4.85;;;6.00;99.90;;;;;;5023350;28;20033;-40
2022/02/20 06:36:37;;;;;;;19.95;5.90;;;6.10;99.90;;;;;;5031308;28;20030;-37
2022/02/20 06:39:05;;;;;;;12.73;5.03;;;6.20;99.90;;;;;;5028875;28;20096;-51
2022/02/20 06:41:30;;;;;;;17.48;5.55;;;6.20;99.90;;;;;;5035081;28;20057;-39
2022/02/20 06:43:56;;;;;;;14.90;5.75;;;6.30;99.90;;;;;;5016654;28;20022;-38
2022/02/20 06:46:22;;;;;;;18.67;5.25;;;6.40;99.90;;;;;;5031252;28;20273;-39
2022/02/20 06:48:47;;;;;;;12.75;4.55;;;6.50;99.90;;;;;;5021786;28;20073;-36
2022/02/20 06:51:13;;;;;;;19.17;4.93;;;6.50;99.90;;;;;;5019066;28;20087;-39
2022/02/20 06:53:38;;;;;;;14.60;5.10;;;6.60;99.90;;;;;;5030134;28;20028;-38
2022/02/20 06:56:04;;;;;;;7.20;4.68;;;6.60;99.90;;;;;;5022407;28;20113;-39
2022/02/20 06:58:29;;;;;;;15.10;4.95;;;6.70;99.90;;;;;;5015129;28;20041;-39
2022/02/20 07:00:55;;;;;;;8.40;4.20;;;6.80;99.90;;;;;;5031326;28;20026;-37
2022/02/20 07:03:21;;;;;;;14.60;5.97;;;6.90;99.90;;;;;;5029030;28;20033;-38
2022/02/20 07:05:46;;;;;;;11.82;4.40;;;6.90;99.90;;;;;;5014701;28;20037;-39
2022/02/20 07:08:12;;;;;;;23.02;5.65;;;7.00;99.90;;;;;;5016166;28;20061;-39
2022/02/20 07:10:38;;;;;;;11.85;4.93;;;7.10;99.90;;;;;;5019456;28;20442;-37
2022/02/20 07:13:03;;;;;;;11.52;4.13;;;7.20;99.90;;;;;;5017397;28;20111;-37
2022/02/20 07:15:29;;;;;;;15.25;4.25;;;7.30;99.90;;;;;;5027763;28;21077;-38
2022/02/20 07:17:55;;;;;;;14.45;4.10;;;7.40;99.90;;;;;;5033894;28;20446;-39
2022/02/20 07:20:20;;;;;;;10.20;3.47;;;7.40;99.90;;;;;;5032819;28;20030;-38
2022/02/20 07:22:46;;;;;;;11.50;3.20;;;7.50;99.90;;;;;;5031496;28;20397;-38
2022/02/20 07:25:12;;;;;;;8.30;2.75;;;7.60;99.90;;;;;;5014394;28;20057;-38
2022/02/20 07:27:44;;;;;;;13.60;2.80;;;7.80;99.90;;;;;;5013943;28;20060;-36
2022/02/20 07:30:12;;;;;;;9.90;3.00;;;7.90;99.90;;;;;;5032842;28;20512;-39
2022/02/20 07:32:38;;;;;;;11.48;3.40;;;8.00;99.90;;;;;;5028701;28;20406;-38
2022/02/20 07:35:05;;;;;;;14.57;3.20;;;8.10;99.90;;;;;;5022088;28;20025;-37
2022/02/20 07:37:31;;;;;;;15.67;2.43;;;8.20;99.90;;;;;;5022976;28;20496;-42
2022/02/20 07:39:57;;;;;;;10.48;2.20;;;8.30;99.90;;;;;;5031505;28;20311;-39
2022/02/20 07:42:23;;;;;;;17.10;2.85;;;8.40;99.90;;;;;;5032699;28;20017;-38
2022/02/20 07:44:48;;;;;;;7.05;2.65;;;8.40;99.90;;;;;;5027950;28;20040;-38
2022/02/20 07:47:14;;;;;;;25.10;3.97;;;8.50;99.90;;;;;;5032946;28;20025;-38
2022/02/20 07:49:40;;;;;;;13.07;2.03;;;8.50;99.90;;;;;;5026704;28;20033;-38
2022/02/20 07:52:06;;;;;;;15.95;3.33;;;8.60;99.90;;;;;;5021055;28;20190;-38
2022/02/20 07:54:32;;;;;;;20.63;3.05;;;8.70;99.90;;;;;;5030563;28;20026;-39
2022/02/20 07:56:58;;;;;;;24.65;3.97;;;8.70;99.90;;;;;;5032647;28;20056;-38
2022/02/20 07:59:25;;;;;;;15.35;3.15;;;8.80;99.90;;;;;;5022193;28;20030;-39
2022/02/20 08:01:51;;;;;;;15.35;1.75;;;8.90;99.90;;;;;;5032849;28;20040;-38
2022/02/20 08:04:17;;;;;;;26.63;2.88;;;8.90;99.90;;;;;;5025225;28;20026;-39
2022/02/20 08:06:42;;;;;;;27.23;3.00;;;9.00;99.90;;;;;;5028680;28;20026;-38
2022/02/20 08:09:08;;;;;;;27.80;3.08;;;9.10;99.90;;;;;;5027227;28;20041;-38
2022/02/20 08:11:34;;;;;;;27.65;3.67;;;9.10;99.90;;;;;;5030742;28;20017;-38
2022/02/20 08:14:00;;;;;;;30.70;3.25;;;9.20;99.90;;;;;;5032829;28;20104;-38
2022/02/20 08:16:26;;;;;;;24.77;4.07;;;9.20;99.90;;;;;;5021418;28;20132;-39
2022/02/20 08:18:52;;;;;;;25.95;3.85;;;9.30;99.90;;;;;;5013635;28;20022;-38
2022/02/20 08:21:17;;;;;;;41.65;5.35;;;9.40;99.90;;;;;;5019713;28;20022;-37
2022/02/20 08:23:44;;;;;;;28.83;3.53;;;9.40;99.90;;;;;;5023445;28;20025;-39
2022/02/20 08:26:10;;;;;;;47.20;6.03;;;9.40;99.90;;;;;;5013042;28;20030;-39
2022/02/20 08:28:36;;;;;;;32.47;5.03;;;9.50;99.90;;;;;;5030399;28;20068;-39
2022/02/20 08:31:02;;;;;;;36.88;4.18;;;9.50;99.90;;;;;;5020825;28;20517;-46
2022/02/20 08:33:28;;;;;;;40.40;5.53;;;9.60;99.90;;;;;;5027138;28;20021;-42
2022/02/20 08:35:53;;;;;;;45.20;4.88;;;9.60;99.90;;;;;;5029079;28;20025;-38
2022/02/20 08:38:22;;;;;;;31.33;4.80;;;9.70;99.90;;;;;;5021781;28;20114;-37
2022/02/20 08:40:49;;;;;;;35.92;5.57;;;9.80;99.90;;;;;;5014106;28;20028;-58
2022/02/20 08:43:15;;;;;;;43.00;4.70;;;9.90;99.90;;;;;;5022602;28;20029;-39
2022/02/20 08:45:43;;;;;;;36.08;4.68;;;9.90;99.90;;;;;;5027221;28;20023;-38
2022/02/20 08:48:09;;;;;;;45.28;4.90;;;9.90;99.90;;;;;;5032475;28;20033;-37
2022/02/20 08:50:35;;;;;;;30.33;4.63;;;10.00;99.90;;;;;;5018454;28;20060;-39
2022/02/20 08:53:01;;;;;;;41.65;3.85;;;10.00;99.90;;;;;;5020496;28;20026;-39
2022/02/20 08:55:27;;;;;;;26.88;4.32;;;10.00;99.90;;;;;;5018998;28;20030;-38
2022/02/20 08:57:53;;;;;;;42.10;4.70;;;10.00;99.90;;;;;;5012832;28;20022;-38
2022/02/20 09:00:18;;;;;;;33.67;4.20;;;10.10;99.90;;;;;;5027963;28;20033;-38
2022/02/20 09:02:44;;;;;;;44.05;5.25;;;10.10;99.90;;;;;;5013109;28;20104;-39
2022/02/20 09:05:10;;;;;;;38.85;3.70;;;10.20;99.90;;;;;;5025409;28;20478;-37
2022/02/20 09:07:36;;;;;;;39.35;5.15;;;10.20;99.90;;;;;;5020847;28;20079;-39
2022/02/20 09:10:04;;;;;;;38.95;4.68;;;10.30;99.90;;;;;;5020007;28;20079;-37
2022/02/20 09:12:30;;;;;;;;;;;10.30;99.90;;;;;;5032792;28;20471;-39
2022/02/20 09:14:56;;;;;;;27.42;4.18;;;10.40;99.90;;;;;;5018220;28;20329;-38
2022/02/20 09:17:22;;;;;;;45.83;4.78;;;10.40;99.90;;;;;;5016671;28;20028;-41
2022/02/20 09:19:47;;;;;;;44.00;5.93;;;10.40;99.90;;;;;;5019736;28;20057;-39
2022/02/20 09:22:14;;;;;;;33.75;6.38;;;10.50;99.90;;;;;;5031792;28;20034;-38
2022/02/20 09:24:39;;;;;;;42.92;6.47;;;10.50;99.90;;;;;;5020919;28;20039;-41
2022/02/20 09:27:05;;;;;;;40.80;5.10;;;10.50;99.90;;;;;;5020026;28;20105;-37
2022/02/20 09:29:33;;;;;;;39.10;4.35;;;10.50;99.90;;;;;;5020805;28;20060;-38
2022/02/20 09:32:03;;;;;;;45.30;4.90;;;10.50;99.90;;;;;;5035007;28;20389;-38
2022/02/20 09:34:29;;;;;;;30.90;5.38;;;10.60;99.90;;;;;;5032032;28;20025;-37
2022/02/20 09:36:54;;;;;;;43.80;6.10;;;10.60;99.90;;;;;;5026949;28;20021;-39
2022/02/20 09:39:20;;;;;;;36.78;5.35;;;10.70;99.90;;;;;;5034368;28;20528;-38
2022/02/20 09:41:46;;;;;;;40.17;4.70;;;10.80;99.90;;;;;;5028027;28;20025;-39
2022/02/20 09:44:11;;;;;;;45.67;5.78;;;10.80;99.90;;;;;;5025293;28;20060;-38
2022/02/20 09:46:42;;;;;;;30.25;5.35;;;10.80;99.90;;;;;;5030600;28;20109;-39
2022/02/20 09:49:08;;;;;;;46.50;5.90;;;10.80;99.90;;;;;;5025614;28;20021;-37
2022/02/20 09:51:33;;;;;;;36.67;5.28;;;10.80;99.90;;;;;;5033956;28;20115;-39
2022/02/20 09:54:00;;;;;;;32.33;4.25;;;10.80;99.90;;;;;;5026374;28;20049;-38
2022/02/20 09:56:26;;;;;;;42.92;5.13;;;10.80;99.90;;;;;;5034864;28;20048;-38
2022/02/20 09:58:53;;;;;;;45.10;6.22;;;10.80;99.90;;;;;;5027555;28;20127;-38
2022/02/20 10:01:18;;;;;;;37.55;5.13;;;10.80;99.90;;;;;;5032020;28;20021;-40
2022/02/20 10:03:46;;;;;;;41.03;4.40;;;10.80;99.90;;;;;;5023382;28;20029;-38
2022/02/20 10:06:16;;;;;;;33.30;5.13;;;10.80;99.90;;;;;;5026472;28;20014;-37
2022/02/20 10:08:50;;;;;;;32.63;4.20;;;10.80;99.90;;;;;;5018019;28;20057;-37
2022/02/20 10:11:16;;;;;;;31.10;4.63;;;10.80;99.90;;;;;;5016149;28;20036;-37
2022/02/20 10:13:43;;;;;;;25.10;4.47;;;10.80;99.90;;;;;;5029250;28;20036;-38
2022/02/20 10:16:23;;;;;;;40.30;6.32;;;10.70;99.90;;;;;;5018314;28;20026;-59
2022/02/20 10:18:50;;;;;;;49.22;4.95;;;10.70;99.90;;;;;;5020902;28;20381;-40
2022/02/20 10:21:21;;;;;;;52.42;6.85;;;10.70;99.90;;;;;;5031061;28;20017;-49
2022/02/20 10:23:48;;;;;;;44.05;6.13;;;10.60;99.90;;;;;;5033527;28;20022;-39
2022/02/20 10:26:18;;;;;;;47.20;5.93;;;10.60;99.90;;;;;;5018174;28;20112;-41
2022/02/20 10:29:00;;;;;;;36.45;5.65;;;10.60;99.90;;;;;;5015142;28;20054;-38
2022/02/20 10:31:43;;;;;;;36.38;4.68;;;10.60;99.90;;;;;;5022890;28;20115;-38
2022/02/20 10:34:21;;;;;;;41.83;5.47;;;10.60;99.90;;;;;;5020281;28;20477;-62
2022/02/20 10:36:55;;;;;;;37.30;5.10;;;10.60;99.90;;;;;;5016324;28;20513;-41
2022/02/20 10:39:24;;;;;;;44.90;6.22;;;10.60;99.90;;;;;;5016520;28;20029;-51
2022/02/20 10:41:50;;;;;;;43.20;5.85;;;10.50;99.90;;;;;;5029818;28;20529;-43
2022/02/20 10:44:16;;;;;;;44.22;6.13;;;10.50;99.90;;;;;;5020513;28;20018;-39
2022/02/20 10:46:42;;;;;;;46.30;5.55;;;10.40;99.90;;;;;;5024011;28;20014;-38
2022/02/20 10:49:07;;;;;;;41.42;6.72;;;10.30;99.90;;;;;;5034811;28;20471;-40
2022/02/20 10:51:38;;;;;;;28.88;4.28;;;10.30;99.90;;;;;;5021827;28;20040;-40
2022/02/20 10:54:04;;;;;;;42.60;5.13;;;10.30;99.90;;;;;;5026983;28;20022;-38
2022/02/20 10:56:44;;;;;;;31.67;4.03;;;10.20;99.90;;;;;;5026862;28;20032;-40
2022/02/20 10:59:10;;;;;;;51.90;6.05;;;10.20;99.90;;;;;;5034841;28;20493;-37
2022/02/20 11:01:36;;;;;;;30.33;3.75;;;10.10;99.90;;;;;;5018470;28;20022;-41
2022/02/20 11:04:10;;;;;;;33.78;4.85;;;10.20;99.90;;;;;;5019572;28;20018;-39
2022/02/20 11:06:37;;;;;;;29.75;4.18;;;10.10;99.90;;;;;;5026057;28;20383;-41
2022/02/20 11:09:04;;;;;;;59.90;5.63;;;10.10;99.90;;;;;;5014442;28;20040;-40
2022/02/20 11:11:39;;;;;;;38.03;5.10;;;10.10;99.90;;;;;;5027322;28;20042;-38
2022/02/20 11:14:13;;;;;;;34.40;6.07;;;10.10;99.90;;;;;;5028200;28;20099;-39
2022/02/20 11:16:50;;;;;;;35.17;4.55;;;10.20;99.90;;;;;;5024258;28;20029;-40
2022/02/20 11:19:23;;;;;;;45.75;5.93;;;10.20;99.90;;;;;;5018531;28;20029;-39
2022/02/20 11:21:54;;;;;;;40.17;4.63;;;10.10;99.90;;;;;;5034114;28;20029;-38
2022/02/20 11:24:20;;;;;;;37.30;4.15;;;10.10;99.90;;;;;;5028950;28;20029;-40
2022/02/20 11:26:46;;;;;;;39.78;4.70;;;10.10;99.90;;;;;;5022782;28;20096;-39
2022/02/20 11:29:15;;;;;;;43.10;5.38;;;10.20;99.90;;;;;;5023501;28;20124;-51
2022/02/20 11:31:41;;;;;;;41.13;6.95;;;10.20;99.90;;;;;;5031014;28;20443;-41
2022/02/20 11:34:08;;;;;;;31.83;3.78;;;10.20;99.90;;;;;;5033520;28;20024;-51
2022/02/20 11:36:34;;;;;;;39.35;5.47;;;10.20;99.90;;;;;;5021873;28;20064;-39
2022/02/20 11:39:07;;;;;;;43.28;6.03;;;10.20;99.90;;;;;;5033416;28;20052;-41
2022/02/20 11:41:34;;;;;;;36.03;4.63;;;10.20;99.90;;;;;;5024203;28;20056;-40
2022/02/20 11:44:20;;;;;;;35.43;5.47;;;10.20;99.90;;;;;;5029016;28;20508;-38
2022/02/20 11:46:51;;;;;;;40.67;5.57;;;10.20;99.90;;;;;;5024567;28;20025;-34
2022/02/20 11:49:19;;;;;;;45.13;5.07;;;10.20;99.90;;;;;;5028960;28;20091;-40
2022/02/20 11:52:01;;;;;;;41.92;5.47;;;10.20;99.90;;;;;;5108476;27;20796;-40
2022/02/20 11:54:28;;;;;;;34.03;4.70;;;10.20;99.90;;;;;;5098462;28;20472;-37
2022/02/20 11:57:12;;;;;;;34.67;4.43;;;10.20;99.90;;;;;;5089422;28;20066;-38
2022/02/20 12:00:01;;;;;;;53.97;6.55;;;10.20;99.90;;;;;;5069934;28;20112;-38
2022/02/20 12:02:26;;;;;;;35.63;5.60;;;10.20;99.90;;;;;;5072651;28;20040;-37
2022/02/20 12:04:55;;;;;;;41.83;6.13;;;10.20;99.90;;;;;;5088989;28;20020;-39
2022/02/20 12:07:37;;;;;;;27.33;4.93;;;10.20;99.90;;;;;;5091190;28;20473;-39
2022/02/20 12:10:21;;;;;;;38.33;4.82;;;10.10;99.90;;;;;;5101915;28;20032;-39
2022/02/20 12:12:55;;;;;;;37.92;4.72;;;10.20;99.90;;;;;;5103196;28;20058;-39
2022/02/20 12:15:34;;;;;;;52.05;6.47;;;10.20;99.90;;;;;;5092338;28;20020;-39
2022/02/20 12:18:24;;;;;;;41.25;5.25;;;10.20;99.90;;;;;;5093525;28;20070;-40
2022/02/20 12:20:53;;;;;;;36.75;4.88;;;10.20;99.90;;;;;;5090458;28;20067;-40
2022/02/20 12:23:29;;;;;;;44.03;5.75;;;10.20;99.90;;;;;;5107856;28;20046;-38
2022/02/20 12:25:56;;;;;;;38.55;5.22;;;10.20;99.90;;;;;;5092384;28;20039;-40
2022/02/20 12:28:39;;;;;;;30.70;5.93;;;10.20;99.90;;;;;;5109651;28;20038;-39
2022/02/20 12:31:31;;;;;;;42.17;5.45;;;10.20;99.90;;;;;;5104016;28;20035;-39
2022/02/20 12:33:57;;;;;;;32.30;4.65;;;10.20;99.90;;;;;;5089545;28;20024;-38
2022/02/20 12:36:28;;;;;;;38.20;5.32;;;10.20;99.90;;;;;;5070748;28;20197;-38
2022/02/20 12:39:00;;;;;;;29.00;4.47;;;10.20;99.90;;;;;;5082577;28;20034;-40
2022/02/20 12:41:28;;;;;;;32.30;5.18;;;10.30;99.90;;;;;;5097248;28;20090;-39
2022/02/20 12:43:55;;;;;;;43.85;5.60;;;10.20;99.90;;;;;;5080241;28;20035;-39
2022/02/20 12:46:21;;;;;;;34.75;6.80;;;10.20;99.90;;;;;;5104085;28;20035;-37
2022/02/20 12:48:47;;;;;;;23.77;5.28;;;10.20;99.90;;;;;;5091329;28;20036;-37